createdAt,value
2024-01-24T00:00:21.156Z,2.2
2024-01-24T00:03:05.805Z,1.6
2024-01-24T00:05:50.439Z,1.6
2024-01-24T00:07:06.291Z,2.2
2024-01-24T00:08:35.089Z,2
2024-01-24T00:11:19.721Z,1.4
2024-01-24T00:14:04.367Z,1.1
2024-01-24T00:16:49.008Z,2.2
2024-01-24T00:19:33.655Z,1.3
2024-01-24T00:22:18.286Z,2
2024-01-24T00:25:02.932Z,1.1
2024-01-24T00:27:47.571Z,0.9
2024-01-24T00:30:32.205Z,1.4
2024-01-24T00:33:16.847Z,0.7
2024-01-24T00:34:32.725Z,1.5
2024-01-24T00:38:46.141Z,1.8
2024-01-24T00:44:15.414Z,1.1
2024-01-24T00:47:00.050Z,0.8
2024-01-24T00:49:44.703Z,1.6
2024-01-24T00:52:29.344Z,1.8
2024-01-24T00:55:13.977Z,1.9
2024-01-24T00:57:58.635Z,1.6
2024-01-24T01:00:43.257Z,1.7
2024-01-24T01:01:59.157Z,1.4
2024-01-24T01:03:27.899Z,1.2
2024-01-24T01:06:12.541Z,1.2
2024-01-24T01:08:57.204Z,1.5
2024-01-24T01:11:41.837Z,2.1
2024-01-24T01:14:26.467Z,1.6
2024-01-24T01:17:11.117Z,2
2024-01-24T01:22:40.390Z,1.4
2024-01-24T01:25:25.043Z,1.2
2024-01-24T01:28:09.689Z,1
2024-01-24T01:29:25.595Z,1.6
2024-01-24T01:30:54.322Z,1.2
2024-01-24T01:33:38.970Z,0.8
2024-01-24T01:36:23.603Z,0.6
2024-01-24T01:39:08.243Z,1
2024-01-24T01:41:52.885Z,1.4
2024-01-24T01:44:37.535Z,1
2024-01-24T01:47:22.175Z,1.7
2024-01-24T01:50:06.807Z,0.8
2024-01-24T01:52:51.459Z,0.7
2024-01-24T01:55:36.091Z,1
2024-01-24T01:56:52.000Z,0.4
2024-01-24T01:58:20.726Z,1.1
2024-01-24T02:03:50.322Z,0.8
2024-01-24T02:06:34.663Z,0.7
2024-01-24T02:09:19.302Z,0.6
2024-01-24T02:12:03.949Z,1
2024-01-24T02:20:17.870Z,1
2024-01-24T02:23:02.506Z,0.9
2024-01-24T02:24:18.461Z,0.5
2024-01-24T02:25:47.151Z,0.5
2024-01-24T02:31:16.427Z,1
2024-01-24T02:34:01.072Z,0.3
2024-01-24T02:36:45.715Z,0.7
2024-01-24T02:39:30.359Z,0.6
2024-01-24T02:42:15.008Z,0.6
2024-01-24T02:44:59.653Z,0.7
2024-01-24T02:47:44.274Z,0.3
2024-01-24T02:50:28.917Z,0.7
2024-01-24T02:53:13.567Z,0.5
2024-01-24T03:01:27.491Z,0.3
2024-01-24T03:06:56.783Z,0.8
2024-01-24T03:09:41.415Z,0.9
2024-01-24T03:12:26.052Z,1
2024-01-24T03:15:10.691Z,1.8
2024-01-24T03:19:11.326Z,1.6
2024-01-24T03:20:39.988Z,2.4
2024-01-24T03:23:24.621Z,1.4
2024-01-24T03:26:09.264Z,1.3
2024-01-24T03:31:38.540Z,1.4
2024-01-24T03:34:23.193Z,1.9
2024-01-24T03:37:07.832Z,3.1
2024-01-24T03:39:52.473Z,2.7
2024-01-24T03:45:21.753Z,2
2024-01-24T03:46:37.759Z,1.5
2024-01-24T03:48:06.385Z,2
2024-01-24T03:50:51.038Z,2.3
2024-01-24T03:53:35.680Z,4.5
2024-01-24T03:56:20.308Z,2.7
2024-01-24T03:59:04.959Z,1.9
2024-01-24T04:04:34.246Z,2.8
2024-01-24T04:07:18.887Z,2.6
2024-01-24T04:12:48.170Z,2.9
2024-01-24T04:15:32.813Z,5
2024-01-24T04:21:02.095Z,4.1
2024-01-24T04:23:46.737Z,4.6
2024-01-24T04:29:16.020Z,5.4
2024-01-24T04:32:00.659Z,5.2
2024-01-24T04:34:45.300Z,2.9
2024-01-24T04:37:29.945Z,4.5
2024-01-24T04:40:14.595Z,6.1
2024-01-24T04:41:30.624Z,3.4
2024-01-24T04:45:43.868Z,6.4
2024-01-24T04:48:28.510Z,4.7
2024-01-24T04:53:57.792Z,5.5
2024-01-24T04:56:42.434Z,7.3
2024-01-24T05:02:11.717Z,5.7
2024-01-24T05:04:56.357Z,4.4
2024-01-24T05:07:40.992Z,6.1
2024-01-24T05:08:57.058Z,5.7
2024-01-24T05:13:10.283Z,5.2
2024-01-24T05:18:39.566Z,6.6
2024-01-24T05:21:24.208Z,4.6
2024-01-24T05:26:53.491Z,5.6
2024-01-24T05:29:38.436Z,4.8
2024-01-24T05:35:07.426Z,6.9
2024-01-24T05:36:23.499Z,5.6
2024-01-24T05:37:52.381Z,3.4
2024-01-24T05:43:21.642Z,7
2024-01-24T05:46:05.981Z,7
2024-01-24T05:54:19.905Z,8
2024-01-24T05:57:04.546Z,5.5
2024-01-24T05:59:49.188Z,5.4
2024-01-24T06:02:33.829Z,4.5
2024-01-24T06:03:49.924Z,4.3
2024-01-24T06:08:03.114Z,6
2024-01-24T06:10:47.759Z,6.2
2024-01-24T06:16:17.039Z,10
2024-01-24T06:19:01.663Z,6.7
2024-01-24T06:24:30.962Z,8.5
2024-01-24T06:27:15.583Z,3.6
2024-01-24T06:31:16.352Z,12.9
2024-01-24T06:32:44.888Z,11
2024-01-24T06:35:29.530Z,9.2
2024-01-24T06:40:58.813Z,10.5
2024-01-24T06:43:43.439Z,7.4
2024-01-24T06:49:12.737Z,10.4
2024-01-24T06:51:57.379Z,8.6
2024-01-24T06:57:26.666Z,7.2
2024-01-24T06:58:42.784Z,7.9
2024-01-24T07:00:11.285Z,6.7
2024-01-24T07:02:55.929Z,10.5
2024-01-24T07:05:40.569Z,5.9
2024-01-24T07:08:25.224Z,6.9
2024-01-24T07:11:09.856Z,7.7
2024-01-24T07:13:54.511Z,6.4
2024-01-24T07:16:39.153Z,5.3
2024-01-24T07:22:08.436Z,5.4
2024-01-24T07:24:53.077Z,5.8
2024-01-24T07:26:09.215Z,6.2
2024-01-24T07:30:22.338Z,6.2
2024-01-24T07:33:06.999Z,6.6
2024-01-24T07:35:51.632Z,7.7
2024-01-24T07:41:20.926Z,6.2
2024-01-24T07:46:50.209Z,5.4
2024-01-24T07:53:35.658Z,8.3
2024-01-24T07:57:48.777Z,8.9
2024-01-24T08:00:33.401Z,8.7
2024-01-24T08:03:18.044Z,4.4
2024-01-24T08:06:02.701Z,5.7
2024-01-24T08:08:47.334Z,7.2
2024-01-24T08:11:31.962Z,7
2024-01-24T08:14:16.609Z,8.2
2024-01-24T08:17:01.247Z,5.7
2024-01-24T08:19:45.889Z,5.5
2024-01-24T08:21:02.076Z,7
2024-01-24T08:22:30.540Z,6.1
2024-01-24T08:25:15.166Z,7.2
2024-01-24T08:27:59.822Z,6.2
2024-01-24T08:30:44.467Z,6.1
2024-01-24T08:33:29.104Z,7
2024-01-24T08:36:13.747Z,5.8
2024-01-24T08:38:58.383Z,7
2024-01-24T08:41:43.028Z,6.9
2024-01-24T08:44:27.661Z,5.4
2024-01-24T08:47:12.305Z,5.3
2024-01-24T08:48:28.499Z,6.5
2024-01-24T08:49:56.951Z,9.2
2024-01-24T08:55:26.232Z,8
2024-01-24T09:00:55.501Z,7.3
2024-01-24T09:03:40.170Z,8.3
2024-01-24T09:06:24.786Z,9.4
2024-01-24T09:09:09.453Z,6.7
2024-01-24T09:11:54.090Z,8.2
2024-01-24T09:14:38.706Z,6.2
2024-01-24T09:15:54.945Z,7.8
2024-01-24T09:17:23.358Z,10.4
2024-01-24T09:20:07.997Z,7.9
2024-01-24T09:25:37.601Z,6.8
2024-01-24T09:28:21.945Z,6.8
2024-01-24T09:33:51.219Z,7.1
2024-01-24T09:36:35.869Z,8.2
2024-01-24T09:42:05.147Z,7.7
2024-01-24T09:43:21.379Z,5.8
2024-01-24T09:44:49.795Z,6.5
2024-01-24T09:47:34.427Z,8.7
2024-01-24T09:50:19.080Z,7.9
2024-01-24T09:53:03.722Z,9.1
2024-01-24T09:55:48.341Z,8.8
2024-01-24T09:58:33.004Z,6
2024-01-24T10:01:17.622Z,7.1
2024-01-24T10:09:31.570Z,6.9
2024-01-24T10:10:47.814Z,6.2
2024-01-24T10:15:00.855Z,6.3
2024-01-24T10:17:45.497Z,6.3
2024-01-24T10:20:30.129Z,9.7
2024-01-24T10:23:14.779Z,7.8
2024-01-24T10:25:59.401Z,7.8
2024-01-24T10:34:13.326Z,8.1
2024-01-24T10:36:57.970Z,6.1
2024-01-24T10:38:14.227Z,7.6
2024-01-24T10:39:42.607Z,7.1
2024-01-24T10:42:27.272Z,12.5
2024-01-24T10:47:56.528Z,9.4
2024-01-24T10:50:41.176Z,5.9
2024-01-24T10:53:25.809Z,8.8
2024-01-24T10:56:10.476Z,7.3
2024-01-24T10:58:55.120Z,7.4
2024-01-24T11:01:39.739Z,8.3
2024-01-24T11:04:24.403Z,7
2024-01-24T11:05:40.677Z,8.4
2024-01-24T11:07:09.031Z,8.5
2024-01-24T11:09:53.659Z,7.4
2024-01-24T11:12:38.330Z,9.6
2024-01-24T11:15:22.971Z,6.6
2024-01-24T11:18:07.585Z,11.1
2024-01-24T11:20:52.229Z,9.1
2024-01-24T11:23:36.874Z,9.4
2024-01-24T11:26:21.512Z,4
2024-01-24T11:29:06.178Z,9.2
2024-01-24T11:31:50.790Z,6
2024-01-24T11:33:07.108Z,6.5
2024-01-24T11:34:35.444Z,7.6
2024-01-24T11:37:20.104Z,6.9
2024-01-24T11:40:04.734Z,6.6
2024-01-24T11:42:49.362Z,6.2
2024-01-24T11:45:34.007Z,6.2
2024-01-24T11:48:18.655Z,7.1
2024-01-24T11:53:47.952Z,6.7
2024-01-24T11:56:32.588Z,4.3
2024-01-24T11:59:17.232Z,5.2
2024-01-24T12:00:33.543Z,7.6
2024-01-24T12:02:01.877Z,7.8
2024-01-24T12:04:46.518Z,7.9
2024-01-24T12:10:16.094Z,6.5
2024-01-24T12:13:00.443Z,5.7
2024-01-24T12:15:45.067Z,4.9
2024-01-24T12:18:29.723Z,5.5
2024-01-24T12:21:14.364Z,5.1
2024-01-24T12:23:59.005Z,4.8
2024-01-24T12:26:43.647Z,5.2
2024-01-24T12:27:59.985Z,7
2024-01-24T12:29:28.280Z,4.7
2024-01-24T12:32:12.930Z,5.6
2024-01-24T12:34:57.579Z,5.7
2024-01-24T12:37:42.000Z,5.4
2024-01-24T12:40:26.844Z,6.8
2024-01-24T12:43:11.496Z,4.8
2024-01-24T12:45:56.127Z,5.9
2024-01-24T12:48:40.794Z,4.3
2024-01-24T12:51:25.420Z,7.2
2024-01-24T12:54:10.058Z,5.3
2024-01-24T12:55:26.422Z,5.2
2024-01-24T12:59:39.346Z,6.7
2024-01-24T13:02:23.987Z,6.3
2024-01-24T13:05:08.609Z,4.6
2024-01-24T13:07:53.269Z,4.9
2024-01-24T13:10:37.920Z,4.9
2024-01-24T13:18:51.834Z,6.3
2024-01-24T13:24:21.123Z,6.8
2024-01-24T13:27:05.759Z,4.6
2024-01-24T13:29:50.394Z,12.6
2024-01-24T13:32:35.041Z,7.4
2024-01-24T13:35:19.682Z,8.4
2024-01-24T13:38:04.327Z,9.2
2024-01-24T13:40:49.309Z,9.3
2024-01-24T13:43:33.607Z,8.4
2024-01-24T13:46:18.255Z,6.6
2024-01-24T13:49:03.185Z,8
2024-01-24T13:50:19.590Z,9.1
2024-01-24T13:51:47.539Z,6.8
2024-01-24T13:57:16.815Z,7.3
2024-01-24T14:00:01.458Z,9.4
2024-01-24T14:05:30.746Z,8.7
2024-01-24T14:08:15.390Z,11.3
2024-01-24T14:11:00.032Z,8.8
2024-01-24T14:13:44.667Z,6.9
2024-01-24T14:17:45.717Z,12.2
2024-01-24T14:24:43.233Z,8
2024-01-24T14:30:12.515Z,8.4
2024-01-24T14:32:57.159Z,6.4
2024-01-24T14:38:26.438Z,7.9
2024-01-24T14:41:11.078Z,8.5
2024-01-24T14:45:12.152Z,7
2024-01-24T14:46:40.354Z,8.9
2024-01-24T14:49:25.015Z,9.9
2024-01-24T14:52:09.640Z,8
2024-01-24T14:54:54.286Z,6.7
2024-01-24T14:57:38.927Z,9
2024-01-24T15:00:23.574Z,10.3
2024-01-24T15:03:08.215Z,9.2
2024-01-24T15:05:52.854Z,8.2
2024-01-24T15:08:37.500Z,10.1
2024-01-24T15:11:22.135Z,6.5
2024-01-24T15:14:06.772Z,8.5
2024-01-24T15:16:51.422Z,6.7
2024-01-24T15:22:20.698Z,8
2024-01-24T15:25:05.347Z,10
2024-01-24T15:27:49.984Z,8
2024-01-24T15:30:34.625Z,7.5
2024-01-24T15:36:03.899Z,12
2024-01-24T15:38:48.543Z,9.8
2024-01-24T15:40:05.020Z,7.2
2024-01-24T15:41:33.197Z,9.5
2024-01-24T15:44:17.828Z,7.4
2024-01-24T15:47:02.465Z,8.3
2024-01-24T15:49:47.106Z,9.2
2024-01-24T15:52:31.757Z,10.3
2024-01-24T15:55:16.401Z,9.8
2024-01-24T15:58:01.031Z,8.4
2024-01-24T16:00:45.688Z,8.4
2024-01-24T16:03:30.324Z,8.8
2024-01-24T16:06:14.974Z,9.2
2024-01-24T16:07:31.453Z,12.1
2024-01-24T16:08:59.605Z,6.5
2024-01-24T16:11:44.245Z,8.6
2024-01-24T16:14:28.881Z,7
2024-01-24T16:17:13.533Z,10.9
2024-01-24T16:19:58.162Z,8.6
2024-01-24T16:22:42.810Z,8.8
2024-01-24T16:25:27.454Z,5.8
2024-01-24T16:28:12.105Z,8.6
2024-01-24T16:33:41.378Z,6.8
2024-01-24T16:34:57.874Z,7.9
2024-01-24T16:36:26.326Z,7.3
2024-01-24T16:39:10.653Z,8
2024-01-24T16:41:55.661Z,10.3
2024-01-24T16:44:39.949Z,9.1
2024-01-24T16:47:24.587Z,9.5
2024-01-24T16:50:09.233Z,10.3
2024-01-24T16:52:54.170Z,13.6
2024-01-24T17:01:07.798Z,8.8
2024-01-24T17:02:24.299Z,9.1
2024-01-24T17:06:37.080Z,6.3
2024-01-24T17:09:21.701Z,11.6
2024-01-24T17:14:51.007Z,9.4
2024-01-24T17:17:35.648Z,9.4
2024-01-24T17:23:04.931Z,8.9
2024-01-24T17:25:49.559Z,6.5
2024-01-24T17:31:18.857Z,5.5
2024-01-24T17:34:03.484Z,7.1
2024-01-24T17:42:17.417Z,8
2024-01-24T17:45:02.057Z,8.5
2024-01-24T17:47:46.707Z,5.8
2024-01-24T17:50:31.342Z,6.3
2024-01-24T17:56:00.630Z,5.4
2024-01-24T17:58:45.247Z,6.8
2024-01-24T18:01:29.917Z,7.7
2024-01-24T18:04:14.559Z,6.7
2024-01-24T18:06:59.189Z,7.5
2024-01-24T18:12:28.483Z,7.4
2024-01-24T18:15:13.111Z,6.6
2024-01-24T18:17:57.759Z,7.3
2024-01-24T18:20:42.407Z,6.7
2024-01-24T18:23:27.047Z,6.6
2024-01-24T18:24:43.622Z,6.3
2024-01-24T18:26:11.678Z,6.8
2024-01-24T18:28:56.319Z,5.4
2024-01-24T18:31:40.975Z,5.9
2024-01-24T18:37:10.244Z,7.3
2024-01-24T18:39:54.899Z,5.6
2024-01-24T18:42:39.541Z,4.9
2024-01-24T18:45:24.183Z,5.3
2024-01-24T18:48:08.806Z,5.8
2024-01-24T18:50:53.466Z,7.2
2024-01-24T18:52:10.036Z,6.7
2024-01-24T18:53:38.108Z,4.8
2024-01-24T18:56:22.732Z,7.4
2024-01-24T18:59:07.371Z,6.3
2024-01-24T19:01:52.033Z,6.1
2024-01-24T19:04:36.661Z,7.2
2024-01-24T19:07:21.303Z,4.8
2024-01-24T19:10:05.954Z,3.6
2024-01-24T19:12:50.595Z,9.1
2024-01-24T19:15:35.237Z,5.8
2024-01-24T19:18:19.878Z,5.8
2024-01-24T19:19:36.470Z,5.6
2024-01-24T19:21:04.522Z,4.2
2024-01-24T19:26:33.804Z,5.5
2024-01-24T19:29:18.737Z,8.4
2024-01-24T19:32:03.079Z,6.1
2024-01-24T19:34:47.721Z,6.2
2024-01-24T19:37:32.348Z,5.6
2024-01-24T19:45:46.277Z,5.5
2024-01-24T19:47:02.922Z,4.2
2024-01-24T19:51:15.561Z,5.2
2024-01-24T19:54:00.209Z,5.2
2024-01-24T19:56:44.860Z,4.3
2024-01-24T19:59:29.501Z,5.7
2024-01-24T20:02:14.147Z,6.3
2024-01-24T20:07:43.418Z,3.6
2024-01-24T20:10:28.065Z,4.3
2024-01-24T20:15:57.350Z,5.1
2024-01-24T20:18:41.992Z,4.9
2024-01-24T20:21:26.654Z,4.1
2024-01-24T20:24:11.277Z,4.6
2024-01-24T20:26:55.930Z,5.4
2024-01-24T20:29:40.541Z,4.7
2024-01-24T20:32:25.201Z,4
2024-01-24T20:35:09.842Z,5
2024-01-24T20:37:54.463Z,4.4
2024-01-24T20:40:39.124Z,5.4
2024-01-24T20:41:56.089Z,5.2
2024-01-24T20:43:23.765Z,4.2
2024-01-24T20:48:53.051Z,4.9
2024-01-24T20:51:37.692Z,4.8
2024-01-24T20:57:06.967Z,3.8
2024-01-24T20:59:51.616Z,4.4
2024-01-24T21:05:20.899Z,6.7
2024-01-24T21:08:05.543Z,6
2024-01-24T21:09:22.217Z,5.8
2024-01-24T21:13:34.824Z,4.7
2024-01-24T21:16:19.458Z,5
2024-01-24T21:19:04.093Z,5.3
2024-01-24T21:21:48.738Z,3.8
2024-01-24T21:24:33.364Z,3.7
2024-01-24T21:30:02.650Z,3.8
2024-01-24T21:32:47.313Z,3.8
2024-01-24T21:35:31.935Z,3.9
2024-01-24T21:36:48.652Z,4.2
2024-01-24T21:38:16.597Z,4.3
2024-01-24T21:41:01.238Z,4.5
2024-01-24T21:43:45.880Z,5
2024-01-24T21:46:30.511Z,4.4
2024-01-24T21:49:15.162Z,3.8
2024-01-24T21:51:59.818Z,3.9
2024-01-24T21:57:29.087Z,4.3
2024-01-24T22:02:58.370Z,4.7
2024-01-24T22:04:15.086Z,2.7
2024-01-24T22:05:43.014Z,4.7
2024-01-24T22:08:27.631Z,4.3
2024-01-24T22:11:12.279Z,4.3
2024-01-24T22:13:56.937Z,3.4
2024-01-24T22:19:26.220Z,4.5
2024-01-24T22:22:10.861Z,4.8
2024-01-24T22:24:55.503Z,3.5
2024-01-24T22:27:40.144Z,2.1
2024-01-24T22:30:24.782Z,2.6
2024-01-24T22:31:41.506Z,3.4
2024-01-24T22:33:09.429Z,3.5
2024-01-24T22:35:54.071Z,4.1
2024-01-24T22:38:38.695Z,3.8
2024-01-24T22:41:23.333Z,3.7
2024-01-24T22:44:07.995Z,4.4
2024-01-24T22:46:52.636Z,3.2
2024-01-24T22:52:21.898Z,3.6
2024-01-24T22:55:06.540Z,4.2
2024-01-24T22:57:51.182Z,4.4
2024-01-24T22:59:07.952Z,3.8
2024-01-24T23:00:35.844Z,4.9
2024-01-24T23:03:20.472Z,4.1
2024-01-24T23:06:05.127Z,3.4
2024-01-24T23:11:34.410Z,5.7
2024-01-24T23:19:48.332Z,3.6
2024-01-24T23:26:34.359Z,4.4
2024-01-24T23:28:02.543Z,3.6
2024-01-24T23:30:46.913Z,4.3
2024-01-24T23:33:31.545Z,4.5
2024-01-24T23:36:16.186Z,4.3
2024-01-24T23:39:00.828Z,3.3
2024-01-24T23:41:45.469Z,5.9
2024-01-24T23:44:30.079Z,3.7
2024-01-24T23:49:59.371Z,4.2
2024-01-24T23:52:44.004Z,4.4
2024-01-24T23:54:00.827Z,5.1
2024-01-24T23:58:13.319Z,3.7
